Time;durP1;ratioP1;P1;durP2;ratioP2;P2;SDS_P1;SDS_P2;PMS_P1;PMS_P2;Temp;Humidity;BMP_temperature;BMP_pressure;BME280_temperature;BME280_humidity;BME280_pressure;Samples;Min_cycle;Max_cycle;Signal;HPM_P1;HPM_P2
2022/08/23 00:01:55;;;;;;;12.95;1.72;;;;;;;19.61;100.00;99419.17;1714177;82;21538;-53
2022/08/23 00:04:28;;;;;;;9.03;0.98;;;;;;;19.60;100.00;99421.04;1714821;82;21305;-53
2022/08/23 00:06:55;;;;;;;13.48;0.90;;;;;;;19.60;100.00;99414.72;1714820;82;21105;-53
2022/08/23 00:09:23;;;;;;;9.48;1.30;;;;;;;19.59;100.00;99423.41;1715951;82;20991;-53
2022/08/23 00:12:50;;;;;;;14.60;1.07;;;;;;;19.65;100.00;99418.74;1789320;78;28136;-53
2022/08/23 00:15:18;;;;;;;14.38;1.40;;;;;;;19.61;100.00;99426.87;1764089;79;21037;-53
2022/08/23 00:17:45;;;;;;;20.62;1.00;;;;;;;19.63;100.00;99424.00;1766531;79;21121;-53
2022/08/23 00:20:13;;;;;;;12.78;1.20;;;;;;;19.64;100.00;99431.20;1760284;79;21033;-53
2022/08/23 00:22:40;;;;;;;10.98;1.75;;;;;;;19.63;100.00;99428.97;1767612;78;21108;-53
2022/08/23 00:25:09;;;;;;;11.00;1.27;;;;;;;19.63;100.00;99427.59;1759533;79;20993;-53
2022/08/23 00:27:35;;;;;;;8.55;1.52;;;;;;;19.63;100.00;99425.37;1764371;79;21041;-53
2022/08/23 00:30:05;;;;;;;15.35;1.37;;;;;;;19.62;100.00;99427.73;1762425;79;21893;-53
2022/08/23 00:32:34;;;;;;;11.28;1.42;;;;;;;19.62;100.00;99424.50;1766026;79;20902;-53
2022/08/23 00:35:01;;;;;;;14.23;1.15;;;;;;;19.63;100.00;99426.23;1773077;79;21012;-52
2022/08/23 00:37:30;;;;;;;11.38;1.20;;;;;;;19.61;100.00;99429.59;1768149;79;20875;-53
2022/08/23 00:39:56;;;;;;;7.10;1.40;;;;;;;19.60;100.00;99427.00;1766221;78;21432;-54
2022/08/23 00:48:56;;;;;;;7.55;1.27;;;;;;;19.59;100.00;99430.73;1765221;78;25432;-53
2022/08/23 00:51:37;;;;;;;9.18;1.57;;;;;;;19.59;100.00;99439.78;1763551;79;21423;-53
2022/08/23 00:54:04;;;;;;;6.35;1.80;;;;;;;19.59;100.00;99436.19;1737164;79;21066;-53
2022/08/23 00:56:33;;;;;;;7.58;1.32;;;;;;;19.59;100.00;99444.37;1758422;79;21487;-53
2022/08/23 00:59:00;;;;;;;14.68;1.45;;;;;;;19.60;100.00;99438.78;1746284;80;20957;-53
2022/08/23 01:01:26;;;;;;;5.97;1.10;;;;;;;19.60;100.00;99434.69;1747600;80;20890;-53
2022/08/23 01:03:55;;;;;;;19.55;1.20;;;;;;;19.62;100.00;99435.92;1716993;81;20993;-53
2022/08/23 01:06:36;;;;;;;4.37;1.20;;;;;;;19.62;100.00;99440.02;1747554;80;20961;-53
2022/08/23 01:09:14;;;;;;;3.25;1.00;;;;;;;19.61;100.00;99439.16;1748335;80;21106;-53
2022/08/23 01:12:03;;;;;;;9.30;1.20;;;;;;;19.62;100.00;99439.52;1745776;80;20907;-53
2022/08/23 01:14:50;;;;;;;4.47;0.98;;;;;;;19.62;100.00;99441.38;1741356;81;20930;-52
2022/08/23 01:17:23;;;;;;;10.68;1.10;;;;;;;19.62;100.00;99438.16;1737942;80;21551;-53
2022/08/23 01:19:53;;;;;;;3.67;0.88;;;;;;;19.61;100.00;99436.42;1740954;80;21672;-53
2022/08/23 01:22:41;;;;;;;4.85;1.00;;;;;;;19.60;100.00;99425.63;1733991;80;21299;-53
2022/08/23 01:25:11;;;;;;;5.80;1.20;;;;;;;19.58;100.00;99433.95;1733144;80;21065;-53
2022/08/23 01:27:44;;;;;;;9.58;0.98;;;;;;;19.57;100.00;99434.95;1732846;80;21127;-53
2022/08/23 01:30:17;;;;;;;7.67;1.00;;;;;;;19.55;100.00;99440.21;1741629;81;21096;-53
2022/08/23 01:32:54;;;;;;;6.87;1.12;;;;;;;19.56;100.00;99451.50;1735384;81;21516;-52
2022/08/23 01:35:25;;;;;;;14.43;1.75;;;;;;;19.54;100.00;99446.17;1711088;81;21717;-53
2022/08/23 01:37:52;;;;;;;5.67;1.20;;;;;;;19.54;100.00;99450.27;1735093;81;21497;-53
2022/08/23 01:40:19;;;;;;;8.53;1.00;;;;;;;19.54;100.00;99452.13;1739545;80;21715;-52
2022/08/23 01:42:46;;;;;;;8.63;1.10;;;;;;;19.53;100.00;99454.00;1738811;81;21030;-52
2022/08/23 01:45:13;;;;;;;8.78;1.15;;;;;;;19.52;100.00;99450.03;1737242;80;21706;-53
2022/08/23 01:47:39;;;;;;;9.28;1.27;;;;;;;19.50;100.00;99446.07;1733469;80;21243;-53
2022/08/23 01:50:08;;;;;;;10.15;1.07;;;;;;;19.49;100.00;99448.44;1735589;81;21583;-53
2022/08/23 01:52:36;;;;;;;4.75;0.90;;;;;;;19.48;100.00;99453.52;1736544;80;21097;-53
2022/08/23 01:55:09;;;;;;;7.70;1.00;;;;;;;19.47;100.00;99455.92;1705452;82;21476;-51
2022/08/23 01:57:36;;;;;;;7.70;1.10;;;;;;;19.48;100.00;99454.06;1734129;80;21038;-53
2022/08/23 02:00:06;;;;;;;6.42;1.10;;;;;;;19.46;100.00;99455.52;1732031;80;21146;-53
2022/08/23 02:02:36;;;;;;;7.47;1.55;;;;;;;19.47;100.00;99455.02;1737873;80;20981;-53
2022/08/23 02:05:05;;;;;;;6.90;0.80;;;;;;;19.43;100.00;99462.61;1738036;81;21325;-53
2022/08/23 02:07:31;;;;;;;5.97;1.20;;;;;;;19.42;100.00;99454.55;1741429;80;21049;-53
2022/08/23 02:09:59;;;;;;;11.97;1.10;;;;;;;19.42;100.00;99452.69;1736811;80;21092;-53
2022/08/23 02:12:26;;;;;;;6.20;1.00;;;;;;;19.43;100.00;99461.73;1735124;80;21148;-53
2022/08/23 02:14:55;;;;;;;14.53;1.10;;;;;;;19.41;100.00;99463.73;1735948;80;21061;-52
2022/08/23 02:17:23;;;;;;;11.35;1.00;;;;;;;19.39;100.00;99463.03;1677870;83;21545;-53
2022/08/23 02:19:52;;;;;;;12.98;1.10;;;;;;;19.38;100.00;99464.03;1727933;81;21097;-53
2022/08/23 02:22:18;;;;;;;8.73;1.32;;;;;;;19.37;100.00;99458.20;1718177;81;21136;-53
2022/08/23 02:24:46;;;;;;;5.47;1.00;;;;;;;19.36;100.00;99451.02;1669305;83;21247;-53
2022/08/23 02:27:14;;;;;;;6.00;0.90;;;;;;;19.35;100.00;99453.38;1726088;80;21089;-53
2022/08/23 02:29:44;;;;;;;8.45;0.95;;;;;;;19.34;100.00;99454.37;1724958;81;21608;-53
2022/08/23 02:32:11;;;;;;;7.42;0.80;;;;;;;19.31;100.00;99454.66;1734095;80;21089;-53
2022/08/23 02:34:39;;;;;;;14.70;1.10;;;;;;;19.30;100.00;99466.08;1733768;80;21675;-53
2022/08/23 02:37:07;;;;;;;4.78;0.80;;;;;;;19.28;100.00;99466.20;1731564;80;21250;-53
2022/08/23 02:39:34;;;;;;;6.53;1.00;;;;;;;19.29;100.00;99467.08;1729570;81;21058;-52
2022/08/23 02:42:01;;;;;;;6.83;0.75;;;;;;;19.28;100.00;99468.94;1732693;81;21081;-53
2022/08/23 02:44:30;;;;;;;10.85;0.80;;;;;;;19.26;100.00;99465.97;1731572;80;21136;-53
2022/08/23 02:46:56;;;;;;;10.82;0.85;;;;;;;19.24;100.00;99466.59;1733925;81;22304;-53
2022/08/23 02:49:23;;;;;;;7.87;1.05;;;;;;;19.21;100.00;99473.71;1680204;83;21039;-53
2022/08/23 02:51:50;;;;;;;7.05;1.27;;;;;;;19.19;100.00;99475.20;1732961;80;21563;-53
2022/08/23 02:54:17;;;;;;;7.95;0.80;;;;;;;19.17;100.00;99475.83;1726752;81;21101;-53
2022/08/23 02:56:44;;;;;;;4.72;1.00;;;;;;;19.15;100.00;99479.19;1731283;80;20985;-53
2022/08/23 02:59:10;;;;;;;7.10;0.90;;;;;;;19.14;100.00;99479.34;1734111;81;21370;-53
2022/08/23 03:01:38;;;;;;;5.78;1.10;;;;;;;19.13;100.00;99484.44;1731278;80;21120;-53
2022/08/23 03:04:09;;;;;;;9.50;0.90;;;;;;;19.11;100.00;99487.79;1716539;81;22347;-53
2022/08/23 03:06:37;;;;;;;10.15;1.30;;;;;;;19.09;100.00;99484.32;1730857;81;21453;-53
2022/08/23 03:09:04;;;;;;;2.90;0.75;;;;;;;19.08;100.00;99493.00;1735389;80;20978;-53
2022/08/23 03:11:31;;;;;;;7.97;1.07;;;;;;;19.08;100.00;99493.00;1723150;80;21097;-53
2022/08/23 03:14:00;;;;;;;9.13;0.80;;;;;;;19.07;100.00;99502.68;1731791;80;21436;-53
2022/08/23 03:16:27;;;;;;;10.58;0.90;;;;;;;19.06;100.00;99499.08;1735337;81;21074;-53
2022/08/23 03:18:54;;;;;;;11.97;1.00;;;;;;;19.05;100.00;99499.24;1711529;81;21108;-53
2022/08/23 03:21:21;;;;;;;4.55;0.70;;;;;;;19.06;100.00;99503.67;1728407;80;21038;-53
2022/08/23 03:23:48;;;;;;;5.45;0.90;;;;;;;19.04;100.00;99501.11;1730092;81;21093;-53
2022/08/23 03:26:15;;;;;;;3.45;0.80;;;;;;;19.02;100.00;99504.45;1730565;81;21130;-53
2022/08/23 03:28:43;;;;;;;9.30;1.30;;;;;;;19.01;100.00;99501.86;1736278;81;21050;-53
2022/08/23 03:31:10;;;;;;;7.50;0.80;;;;;;;19.00;100.00;99503.72;1731656;81;21087;-53
2022/08/23 03:33:38;;;;;;;7.83;0.80;;;;;;;19.00;100.00;99505.58;1731833;80;21363;-53
2022/08/23 03:36:07;;;;;;;8.33;0.95;;;;;;;19.01;100.00;99515.50;1729812;81;20871;-53
2022/08/23 03:38:34;;;;;;;4.35;1.37;;;;;;;19.00;100.00;99503.72;1727002;81;21497;-53
2022/08/23 03:41:01;;;;;;;2.85;0.80;;;;;;;19.02;100.00;99504.95;1732739;81;20868;-52
2022/08/23 03:43:27;;;;;;;7.12;1.20;;;;;;;19.04;100.00;99509.29;1728101;81;20954;-53
2022/08/23 03:45:54;;;;;;;7.17;0.95;;;;;;;19.05;100.00;99512.39;1732829;81;21354;-53
2022/08/23 03:48:21;;;;;;;6.47;0.78;;;;;;;19.06;100.00;99514.58;1716088;81;21374;-53
2022/08/23 03:50:47;;;;;;;13.58;1.02;;;;;;;19.06;100.00;99515.45;1731702;81;21377;-52
2022/08/23 03:53:14;;;;;;;10.88;1.35;;;;;;;19.07;100.00;99518.55;1737844;80;20887;-53
2022/08/23 03:55:41;;;;;;;4.90;0.90;;;;;;;19.10;100.00;99522.38;1697228;82;20956;-53
2022/08/23 03:58:08;;;;;;;4.65;1.00;;;;;;;19.12;100.00;99537.27;1732075;81;21486;-53
2022/08/23 04:00:35;;;;;;;6.17;0.85;;;;;;;19.13;100.00;99539.00;1733108;80;21907;-53
2022/08/23 04:03:01;;;;;;;2.70;0.93;;;;;;;19.15;100.00;99534.25;1734133;80;21093;-53
2022/08/23 04:05:28;;;;;;;10.88;0.98;;;;;;;19.17;100.00;99543.17;1734809;81;21192;-53
2022/08/23 04:08:01;;;;;;;8.50;1.42;;;;;;;19.18;100.00;99538.95;1730684;81;20939;-53
2022/08/23 04:10:28;;;;;;;3.95;0.70;;;;;;;19.19;100.00;99537.95;1710689;80;21948;-53
2022/08/23 04:12:55;;;;;;;4.60;0.80;;;;;;;19.20;100.00;99540.19;1723925;81;20955;-53
2022/08/23 04:15:23;;;;;;;6.70;0.78;;;;;;;19.20;100.00;99545.15;1729881;81;21115;-53
2022/08/23 04:17:50;;;;;;;9.78;0.78;;;;;;;19.21;100.00;99543.29;1731682;80;20927;-53
2022/08/23 04:20:16;;;;;;;7.78;0.90;;;;;;;19.23;100.00;99543.50;1695394;82;21382;-53
2022/08/23 04:22:45;;;;;;;5.67;0.70;;;;;;;19.28;100.00;99548.57;1728003;80;21040;-53
2022/08/23 04:25:11;;;;;;;8.83;1.20;;;;;;;19.32;100.00;99548.65;1728327;80;21567;-53
2022/08/23 04:27:40;;;;;;;9.28;0.78;;;;;;;19.38;100.00;99550.00;1732235;80;21858;-54
2022/08/23 04:30:08;;;;;;;8.43;0.70;;;;;;;19.43;100.00;99543.13;1722124;81;21058;-54
2022/08/23 04:32:35;;;;;;;8.23;0.70;;;;;;;19.50;100.00;99544.34;1672059;83;21133;-53
2022/08/23 04:35:01;;;;;;;12.53;0.88;;;;;;;19.60;100.00;99540.30;1667319;83;21059;-53
2022/08/23 04:37:28;;;;;;;4.85;0.90;;;;;;;19.70;100.00;99546.68;1671615;84;21095;-53
2022/08/23 04:42:41;;;;;;;10.25;1.00;;;;;;;19.87;100.00;99543.80;1725478;80;21504;-54
2022/08/23 04:45:10;;;;;;;8.58;1.10;;;;;;;19.98;100.00;99547.31;1728845;81;21567;-54
2022/08/23 04:47:40;;;;;;;6.30;0.88;;;;;;;20.06;100.00;99556.67;1730793;81;21164;-55
2022/08/23 04:50:07;;;;;;;3.47;1.22;;;;;;;20.15;100.00;99544.92;1725281;80;21501;-55
2022/08/23 04:52:34;;;;;;;8.25;0.85;;;;;;;20.24;100.00;99553.14;1735332;80;21239;-53
2022/08/23 04:55:01;;;;;;;10.28;1.05;;;;;;;20.32;100.00;99552.44;1731189;80;21085;-54
2022/08/23 04:57:30;;;;;;;10.38;1.12;;;;;;;20.38;100.00;99556.00;1712381;81;21050;-54
2022/08/23 04:59:57;;;;;;;17.60;1.20;;;;;;;20.43;100.00;99557.80;1730929;80;21152;-55
2022/08/23 05:02:23;;;;;;;7.97;1.00;;;;;;;20.50;100.00;99560.86;1735107;80;21453;-54
2022/08/23 05:04:50;;;;;;;7.28;0.80;;;;;;;20.56;100.00;99562.52;1727160;80;21327;-55
2022/08/23 05:07:16;;;;;;;7.78;1.42;;;;;;;20.62;100.00;99557.84;1733714;81;21292;-53
2022/08/23 05:09:44;;;;;;;10.43;0.88;;;;;;;20.68;100.00;99560.49;1736036;80;21076;-54
2022/08/23 05:12:11;;;;;;;8.25;0.90;;;;;;;20.70;100.00;99562.09;1730229;81;21150;-53
2022/08/23 05:14:38;;;;;;;7.75;1.30;;;;;;;20.75;100.00;99565.78;1732636;81;21076;-55
2022/08/23 05:17:05;;;;;;;11.20;1.10;;;;;;;20.78;100.00;99563.60;1730481;81;21089;-55
2022/08/23 05:19:32;;;;;;;6.83;0.88;;;;;;;20.83;100.00;99571.40;1734169;80;21042;-55
2022/08/23 05:21:58;;;;;;;12.53;0.80;;;;;;;20.89;100.00;99561.24;1732901;80;21100;-54
2022/08/23 05:24:26;;;;;;;5.35;0.90;;;;;;;20.93;100.00;99560.43;1730542;80;21356;-54
2022/08/23 05:26:53;;;;;;;14.45;0.90;;;;;;;20.98;100.00;99568.59;1730042;81;21060;-53
2022/08/23 05:29:20;;;;;;;11.80;1.32;;;;;;;21.06;100.00;99571.46;1732451;80;21222;-55
2022/08/23 05:31:48;;;;;;;7.65;0.70;;;;;;;21.13;100.00;99571.73;1731183;80;21126;-54
2022/08/23 05:34:15;;;;;;;7.83;0.82;;;;;;;21.18;100.00;99572.19;1728847;81;21031;-55
2022/08/23 05:36:44;;;;;;;9.63;1.42;;;;;;;21.23;100.00;99578.61;1734011;81;21042;-55
2022/08/23 05:39:10;;;;;;;10.80;0.72;;;;;;;21.26;100.00;99575.09;1730056;81;21067;-54
2022/08/23 05:41:39;;;;;;;12.05;1.80;;;;;;;21.30;100.00;99577.02;1730190;80;21275;-53
2022/08/23 05:44:10;;;;;;;8.13;0.85;;;;;;;21.35;100.00;99585.13;1733212;80;21116;-54
2022/08/23 05:46:37;;;;;;;13.28;1.57;;;;;;;21.37;100.00;99582.25;1735753;80;21136;-54
2022/08/23 05:49:18;;;;;;;11.93;1.07;;;;;;;21.41;100.00;99583.70;1727768;80;21140;-54
2022/08/23 05:51:45;;;;;;;9.50;1.05;;;;;;;21.44;100.00;99582.02;1732239;81;21089;-54
2022/08/23 05:54:12;;;;;;;14.75;1.12;;;;;;;21.50;100.00;99581.45;1731452;80;21139;-54
2022/08/23 05:56:41;;;;;;;15.85;1.10;;;;;;;21.55;100.00;99593.33;1731023;80;21663;-53
2022/08/23 05:59:12;;;;;;;18.10;1.60;;;;;;;21.61;100.00;99588.11;1732790;81;21344;-54
2022/08/23 06:01:39;;;;;;;13.32;1.30;;;;;;;21.67;100.00;99597.13;1732345;81;21045;-52
2022/08/23 06:04:10;;;;;;;17.17;1.12;;;;;;;21.75;100.00;99603.23;1729041;80;21388;-53
2022/08/23 06:06:38;;;;;;;21.17;2.40;;;;;;;21.79;100.00;99600.03;1734291;80;21072;-55
2022/08/23 06:09:07;;;;;;;19.23;1.98;;;;;;;21.87;100.00;99605.63;1734402;80;21486;-53
2022/08/23 06:11:35;;;;;;;22.13;1.25;;;;;;;21.96;100.00;99607.12;1726544;80;21067;-52
2022/08/23 06:14:04;;;;;;;19.17;1.35;;;;;;;22.02;100.00;99613.42;1720200;80;21080;-54
2022/08/23 06:16:35;;;;;;;30.20;2.83;;;;;;;22.07;100.00;99619.31;1708288;82;21089;-54
2022/08/23 06:19:02;;;;;;;23.67;1.90;;;;;;;22.12;100.00;99613.72;1735164;80;21132;-54
2022/08/23 06:21:37;;;;;;;16.73;1.82;;;;;;;22.17;100.00;99625.12;1725317;81;21405;-53
2022/08/23 06:24:05;;;;;;;18.98;1.57;;;;;;;22.23;100.00;99631.36;1735784;81;21108;-54
2022/08/23 06:26:37;;;;;;;22.95;1.60;;;;;;;22.28;100.00;99624.57;1728237;81;21101;-54
2022/08/23 06:29:07;;;;;;;26.15;2.45;;;;;;;22.33;100.00;99623.09;1723283;82;21062;-53
2022/08/23 06:31:47;;;;;;;27.27;2.85;;;;;;;22.42;100.00;99623.55;1740171;82;21225;-53
2022/08/23 06:34:25;;;;;;;17.45;2.35;;;;;;;22.52;100.00;99635.84;1711232;82;21049;-53
2022/08/23 06:36:59;;;;;;;23.65;2.37;;;;;;;22.62;100.00;99639.41;1718990;80;21100;-54
2022/08/23 06:39:37;;;;;;;29.67;4.53;;;;;;;22.71;100.00;99638.48;1733664;80;21076;-53
2022/08/23 06:42:21;;;;;;;29.32;3.52;;;;;;;22.82;100.00;99641.53;1721252;80;21100;-53
2022/08/23 06:44:47;;;;;;;48.20;3.25;;;;;;;22.91;100.00;99650.22;1730826;80;21081;-54
2022/08/23 06:47:19;;;;;;;28.90;3.52;;;;;;;22.98;100.00;99647.20;1721220;80;21391;-53
2022/08/23 06:49:45;;;;;;;30.27;3.00;;;;;;;23.04;100.00;99646.59;1728383;80;21085;-54
2022/08/23 06:52:12;;;;;;;36.88;3.25;;;;;;;23.10;100.00;99653.34;1733065;81;21374;-54
2022/08/23 06:54:51;;;;;;;30.82;4.15;;;;;;;23.16;100.00;99651.33;1730041;80;21125;-54
2022/08/23 06:57:31;;;;;;;41.98;4.00;;;;;;;23.22;100.00;99647.98;1722430;81;21169;-53
2022/08/23 07:00:10;;;;;;;36.95;4.50;;;;;;;23.28;100.00;99652.33;1728199;80;21050;-54
2022/08/23 07:02:57;;;;;;;61.55;5.15;;;;;;;23.32;100.00;99656.98;1725189;80;21116;-55
2022/08/23 07:05:42;;;;;;;40.12;3.67;;;;;;;23.36;100.00;99662.02;1726587;81;21084;-53
2022/08/23 07:08:16;;;;;;;;;;;;;;;23.41;100.00;99658.78;1728225;82;20911;-53
2022/08/23 07:10:44;;;;;;;41.28;4.05;;;;;;;23.46;100.00;99669.31;1732206;81;21057;-53
2022/08/23 07:13:10;;;;;;;37.63;5.00;;;;;;;23.49;100.00;99671.25;1733029;82;21161;-53
2022/08/23 07:15:37;;;;;;;48.63;4.97;;;;;;;23.53;100.00;99673.18;1727375;81;21086;-54
2022/08/23 07:18:05;;;;;;;39.00;5.20;;;;;;;23.55;100.00;99672.02;1725075;81;21176;-54
2022/08/23 07:20:32;;;;;;;34.53;4.17;;;;;;;23.60;100.00;99674.27;1723837;81;21105;-53
2022/08/23 07:23:00;;;;;;;57.60;6.20;;;;;;;23.65;100.00;99671.89;1727467;81;21257;-52
2022/08/23 07:25:26;;;;;;;43.65;4.08;;;;;;;23.72;100.00;99673.01;1725542;81;21097;-52
2022/08/23 07:27:55;;;;;;;33.28;3.60;;;;;;;23.78;100.00;99672.87;1727999;81;21045;-54
2022/08/23 07:30:21;;;;;;;49.90;3.87;;;;;;;23.85;100.00;99668.45;1725707;81;21432;-52
2022/08/23 07:32:49;;;;;;;45.78;5.03;;;;;;;23.91;100.00;99681.03;1724066;81;21088;-54
2022/08/23 07:35:18;;;;;;;38.88;5.95;;;;;;;23.99;100.00;99674.73;1727737;81;21423;-53
2022/08/23 07:37:45;;;;;;;51.63;5.10;;;;;;;24.05;100.00;99668.61;1699350;82;21081;-54
2022/08/23 07:40:13;;;;;;;38.23;4.20;;;;;;;24.13;100.00;99679.66;1727679;81;20950;-53
2022/08/23 07:42:40;;;;;;;60.20;6.20;;;;;;;24.18;100.00;99678.64;1725902;81;20970;-54
2022/08/23 07:45:07;;;;;;;49.93;6.45;;;;;;;24.24;100.00;99672.55;1724758;81;21302;-56
2022/08/23 07:47:34;;;;;;;26.60;3.80;;;;;;;24.31;100.00;99672.75;1729471;81;21107;-54
2022/08/23 07:50:01;;;;;;;37.90;4.55;;;;;;;24.39;100.00;99675.03;1728037;81;21006;-53
2022/08/23 07:52:29;;;;;;;41.28;5.80;;;;;;;24.45;100.00;99670.25;1723925;81;21025;-53
2022/08/23 07:54:55;;;;;;;50.85;6.75;;;;;;;24.53;100.00;99678.19;1730036;81;21058;-53
2022/08/23 07:57:40;;;;;;;43.15;4.47;;;;;;;24.58;100.00;99673.93;1724618;81;21013;-53
2022/08/23 08:00:12;;;;;;;40.10;4.55;;;;;;;24.64;100.00;99674.64;1720015;81;21683;-54
2022/08/23 08:04:20;;;;;;;40.28;3.92;;;;;;;24.77;100.00;99678.28;1787535;78;22608;-53
2022/08/23 08:06:49;;;;;;;39.65;4.15;;;;;;;24.78;100.00;99683.63;1772408;79;20990;-52
2022/08/23 08:09:18;;;;;;;62.55;7.72;;;;;;;24.83;100.00;99687.28;1767920;79;21518;-53
2022/08/23 08:11:46;;;;;;;47.88;5.10;;;;;;;24.86;100.00;99685.55;1765414;79;21006;-52
2022/08/23 08:14:13;;;;;;;44.30;5.45;;;;;;;24.91;100.00;99683.69;1768916;79;21057;-54
2022/08/23 08:16:45;;;;;;;48.65;7.65;;;;;;;24.97;100.00;99689.41;1771043;79;21081;-54
2022/08/23 08:19:15;;;;;;;51.50;6.78;;;;;;;25.05;100.00;99685.82;1768048;79;21138;-53
2022/08/23 08:21:44;;;;;;;54.20;6.35;;;;;;;25.15;100.00;99683.78;1762960;79;21776;-54
2022/08/23 08:24:15;;;;;;;44.20;5.42;;;;;;;25.22;100.00;99682.94;1761680;79;21454;-53
2022/08/23 08:26:50;;;;;;;47.78;4.37;;;;;;;25.26;100.00;99685.69;1765924;79;21432;-52
2022/08/23 08:29:17;;;;;;;53.75;5.45;;;;;;;25.34;100.00;99686.24;1760146;79;21093;-53
2022/08/23 08:31:45;;;;;;;57.38;7.08;;;;;;;25.43;100.00;99687.12;1709633;81;21053;-53
2022/08/23 08:34:12;;;;;;;53.25;6.80;;;;;;;25.49;100.00;99685.91;1714261;81;23049;-53
2022/08/23 08:36:46;;;;;;;52.27;7.20;;;;;;;25.54;100.00;99684.87;1715695;82;21066;-54
2022/08/23 08:39:24;;;;;;;64.75;9.18;;;;;;;25.59;100.00;99685.78;1708483;82;21124;-53
2022/08/23 08:42:43;;;;;;;53.50;7.40;;;;;;;25.63;100.00;99697.66;1706519;82;21057;-52
2022/08/23 08:45:23;;;;;;;76.40;8.38;;;;;;;25.65;100.00;99691.12;1715138;82;21078;-54
2022/08/23 08:48:03;;;;;;;58.25;9.03;;;;;;;25.68;100.00;99692.16;1712165;82;21509;-53
2022/08/23 08:50:55;;;;;;;58.60;6.28;;;;;;;25.75;100.00;99689.06;1711155;82;21430;-53
2022/08/23 08:53:37;;;;;;;57.85;8.23;;;;;;;25.81;100.00;99691.98;1711855;82;21129;-52
2022/08/23 08:56:19;;;;;;;59.98;7.95;;;;;;;25.95;100.00;99693.16;1712636;82;21110;-54
2022/08/23 08:58:54;;;;;;;58.10;7.22;;;;;;;26.08;100.00;99689.37;1715596;81;20970;-53
2022/08/23 09:01:22;;;;;;;66.17;7.17;;;;;;;26.19;100.00;99700.06;1711680;82;21278;-53
2022/08/23 09:03:49;;;;;;;51.02;7.05;;;;;;;26.23;100.00;99697.27;1706113;82;21105;-55
2022/08/23 09:06:30;;;;;;;59.40;6.90;;;;;;;26.22;100.00;99703.83;1699708;82;20883;-54
2022/08/23 09:09:23;;;;;;;82.78;6.80;;;;;;;26.22;100.00;99716.75;1692792;83;20938;-55
2022/08/23 09:12:32;;;;;;;50.80;5.95;;;;;;;26.24;100.00;99715.55;1697741;82;20963;-54
2022/08/23 09:15:34;;;;;;;50.03;8.50;;;;;;;26.26;100.00;99713.52;1702750;82;21563;-53
2022/08/23 09:18:11;;;;;;;59.13;6.92;;;;;;;26.25;100.00;99715.91;1702007;82;21369;-56
2022/08/23 09:20:39;;;;;;;47.27;5.67;;;;;;;26.14;100.00;99714.01;1754811;79;20868;-54
2022/08/23 09:23:16;;;;;;;35.73;4.97;;;;;;;26.07;100.00;99719.37;1763193;79;21358;-55
2022/08/23 09:26:01;;;;;;;55.43;4.25;;;;;;;26.00;100.00;99721.97;1758829;79;20926;-54
2022/08/23 09:28:35;;;;;;;35.78;4.37;;;;;;;26.00;100.00;99716.45;1698521;82;21174;-53
2022/08/23 09:31:02;;;;;;;41.02;2.70;;;;;;;26.09;100.00;99724.20;1754616;79;21346;-53
2022/08/23 09:33:42;;;;;;;52.98;5.33;;;;;;;26.19;100.00;99710.23;1753363;80;20926;-54
2022/08/23 09:36:24;;;;;;;30.52;3.05;;;;;;;26.29;100.00;99717.80;1757763;79;21512;-53
2022/08/23 09:39:01;;;;;;;27.80;2.77;;;;;;;26.40;100.00;99706.41;1758884;79;21058;-54
2022/08/23 09:41:38;;;;;;;35.80;3.20;;;;;;;26.48;100.00;99717.42;1753696;79;21120;-54
2022/08/23 09:44:12;;;;;;;33.85;3.77;;;;;;;26.56;100.00;99709.64;1754183;79;21151;-55
2022/08/23 09:46:41;;;;;;;30.15;3.17;;;;;;;26.61;100.00;99710.85;1754319;79;21093;-54
2022/08/23 09:49:28;;;;;;;33.73;2.65;;;;;;;26.65;100.00;99703.92;1759742;79;21054;-53
2022/08/23 09:52:11;;;;;;;38.53;3.45;;;;;;;26.72;100.00;99706.30;1755228;80;21072;-55
2022/08/23 09:54:40;;;;;;;31.62;2.45;;;;;;;26.82;100.00;99707.48;1682843;82;22257;-52
2022/08/23 09:57:09;;;;;;;33.35;3.27;;;;;;;26.91;100.00;99709.20;1750977;79;21521;-53
2022/08/23 09:59:46;;;;;;;36.40;3.77;;;;;;;27.00;100.00;99702.59;1755103;79;21106;-54
2022/08/23 10:02:29;;;;;;;22.00;2.65;;;;;;;27.11;100.00;99706.34;1754346;79;21115;-53
2022/08/23 10:07:37;;;;;;;26.35;2.05;;;;;;;27.29;100.00;99705.21;1787857;78;24301;-54
2022/08/23 10:10:24;;;;;;;17.15;2.35;;;;;;;27.29;100.00;99711.60;1768690;79;20892;-54
2022/08/23 10:12:53;;;;;;;32.63;1.92;;;;;;;27.35;100.00;99707.23;1765943;79;21778;-53
2022/08/23 10:15:26;;;;;;;16.50;1.65;;;;;;;27.41;100.00;99709.27;1766465;79;20990;-53
2022/08/23 10:18:03;;;;;;;26.43;3.17;;;;;;;27.46;100.00;99709.08;1764538;79;21000;-53
2022/08/23 10:20:59;;;;;;;20.45;1.77;;;;;;;27.54;100.00;99712.34;1766083;79;22272;-53
2022/08/23 10:23:43;;;;;;;21.33;2.08;;;;;;;27.62;100.00;99713.66;1763451;79;21414;-55
2022/08/23 10:26:27;;;;;;;15.08;1.70;;;;;;;27.72;100.00;99716.18;1767942;79;21404;-52
2022/08/23 10:32:17;;;;;;;18.55;2.17;;;;;;;27.85;100.00;99713.12;1769201;79;20942;-55
2022/08/23 10:35:36;;;;;;;15.50;1.27;;;;;;;27.93;100.00;99708.56;1763944;79;21088;-53
2022/08/23 10:38:25;;;;;;;16.30;2.20;;;;;;;27.98;100.00;99716.66;1763798;79;21089;-52
2022/08/23 10:41:21;;;;;;;24.63;2.33;;;;;;;28.02;100.00;99711.59;1772318;79;22144;-52
2022/08/23 10:44:17;;;;;;;16.07;1.40;;;;;;;27.99;100.00;99719.73;1765827;79;21037;-54
2022/08/23 10:47:04;;;;;;;17.23;1.32;;;;;;;27.96;100.00;99722.89;1762816;79;21498;-55
2022/08/23 10:49:33;;;;;;;13.50;1.92;;;;;;;27.92;100.00;99726.20;1762545;79;21066;-53
2022/08/23 10:52:00;;;;;;;13.40;1.20;;;;;;;27.86;100.00;99725.91;1763183;79;21052;-52
2022/08/23 10:54:44;;;;;;;13.25;1.22;;;;;;;27.81;100.00;99731.67;1721189;79;21324;-53
2022/08/23 10:57:06;;;;;;;10.75;0.90;;;;;;;27.71;100.00;99731.05;1724591;81;21667;-52
2022/08/23 10:59:33;;;;;;;9.38;1.25;;;;;;;27.61;100.00;99729.91;1701649;82;21058;-53
2022/08/23 11:02:41;;;;;;;14.47;1.47;;;;;;;27.52;100.00;99728.20;1703288;81;21112;-51
2022/08/23 11:05:34;;;;;;;8.48;1.05;;;;;;;27.44;100.00;99733.79;1612092;87;21638;-52
2022/08/23 11:08:05;;;;;;;9.30;0.87;;;;;;;27.38;100.00;99723.47;1716885;81;21143;-53
2022/08/23 11:10:45;;;;;;;17.73;0.90;;;;;;;27.38;100.00;99729.86;1736387;81;21714;-56
2022/08/23 11:13:23;;;;;;;11.15;0.82;;;;;;;27.35;100.00;99719.67;1732686;81;22431;-54
2022/08/23 11:16:14;;;;;;;7.60;0.90;;;;;;;27.34;100.00;99722.09;1732211;80;21002;-55
2022/08/23 11:18:47;;;;;;;6.55;0.95;;;;;;;27.31;100.00;99725.21;1729834;81;21678;-53
2022/08/23 11:21:40;;;;;;;17.52;2.85;;;;;;;27.29;100.00;99732.33;1734424;81;21403;-53
2022/08/23 11:24:15;;;;;;;11.90;0.85;;;;;;;27.28;100.00;99724.21;1730545;81;21094;-53
2022/08/23 11:26:54;;;;;;;12.93;0.90;;;;;;;27.27;100.00;99720.59;1731915;81;21013;-53
2022/08/23 11:29:26;;;;;;;8.95;0.62;;;;;;;27.25;100.00;99723.19;1733724;80;21762;-53
2022/08/23 11:32:06;;;;;;;11.63;1.00;;;;;;;27.20;100.00;99716.84;1733089;81;21045;-53
2022/08/23 11:34:44;;;;;;;8.75;0.70;;;;;;;27.16;100.00;99716.84;1733938;81;21149;-54
2022/08/23 11:37:25;;;;;;;8.03;0.70;;;;;;;27.13;100.00;99722.75;1731003;81;21448;-52
2022/08/23 11:40:01;;;;;;;13.38;0.90;;;;;;;27.08;100.00;99719.13;1732645;80;21089;-52
2022/08/23 11:42:40;;;;;;;6.08;0.80;;;;;;;27.05;100.00;99718.09;1687937;83;21052;-52
2022/08/23 11:45:32;;;;;;;15.15;0.90;;;;;;;27.05;100.00;99718.65;1676859;83;21646;-54
2022/08/23 11:48:36;;;;;;;12.58;0.60;;;;;;;27.03;100.00;99716.06;1615477;84;21113;-54
2022/08/23 11:51:38;;;;;;;8.58;0.70;;;;;;;27.02;100.00;99707.43;1665969;84;25203;-54
2022/08/23 11:54:40;;;;;;;9.30;0.47;;;;;;;27.04;100.00;99714.16;1684460;84;21553;-54
2022/08/23 11:57:44;;;;;;;6.17;0.60;;;;;;;27.09;100.00;99707.56;1680981;84;22307;-53
2022/08/23 12:00:27;;;;;;;5.57;0.80;;;;;;;27.12;100.00;99704.45;1684487;84;21547;-54
2022/08/23 12:03:07;;;;;;;10.43;0.95;;;;;;;27.21;100.00;99694.21;1682165;83;21944;-53